Date,TemperatureHighF,TemperatureAvgF,TemperatureLowF,DewpointHighF,DewpointAvgF,DewpointLowF,HumidityHigh,HumidityAvg,HumidityLow,PressureMaxIn,PressureMinIn,WindSpeedMaxMPH,WindSpeedAvgMPH,GustSpeedMaxMPH,PrecipitationSumIn
2014-1-1,43.6,41.0,35.8,42.0,39.3,33.9,95,94,91,30.04,29.93,2,0,2,0.00
2014-1-2,46.3,42.3,38.7,44.5,40.5,36.9,95,93,90,29.94,29.74,4,0,4,0.00
2014-1-3,49.9,44.0,33.8,46.2,40.4,30.9,95,88,74,29.97,29.75,2,0,2,0.00
2014-1-4,44.8,37.3,29.0,39.4,34.1,26.2,93,88,77,30.07,29.96,1,0,2,0.00
2014-1-5,49.3,33.6,24.8,39.8,29.3,22.1,93,84,68,30.09,29.92,2,0,2,0.00
2014-1-6,44.3,37.2,30.1,38.8,33.7,27.0,92,87,80,29.95,29.85,3,0,3,0.00
2014-1-7,52.2,45.5,41.0,49.6,43.7,38.6,95,93,88,29.85,29.70,3,0,3,0.00
2014-1-8,55.1,50.8,47.3,51.7,48.7,44.6,95,92,87,29.75,29.54,9,1,9,0.00
2014-1-9,51.5,47.5,44.3,49.1,45.4,41.9,94,92,89,29.80,29.64,9,1,9,0.00
2014-1-10,59.8,52.7,48.4,54.0,49.0,46.3,94,88,76,29.88,29.50,7,1,7,0.00
2014-1-11,55.4,49.7,45.5,50.9,45.3,41.9,92,85,69,29.78,29.35,12,2,12,0.00
2014-1-12,54.9,49.6,45.0,52.3,47.1,42.1,94,91,86,30.19,29.78,8,1,8,0.00
2014-1-13,56.2,49.3,38.9,51.4,46.2,36.5,94,89,81,30.33,30.18,4,0,4,0.00
2014-1-14,47.5,42.0,37.3,45.1,40.1,35.4,95,93,89,30.34,30.23,2,0,2,0.00
2014-1-15,44.3,40.7,38.0,41.9,38.9,36.4,95,93,89,30.25,30.13,2,0,2,0.00
2014-1-16,42.5,39.8,37.8,40.1,37.8,36.2,94,92,90,30.14,29.96,2,0,2,0.00
2014-1-17,40.3,37.9,35.3,38.3,36.1,33.5,95,93,91,29.96,29.87,2,0,2,0.00
2014-1-18,39.2,36.4,34.4,37.4,34.7,32.8,95,94,92,29.97,29.86,2,0,2,0.00
2014-1-19,36.4,35.3,33.3,34.7,33.7,31.4,95,94,93,29.86,29.83,3,0,3,0.00
2014-1-20,36.4,35.1,34.2,33.7,32.8,31.5,93,91,90,29.98,29.95,0,0,0,0.00
2014-1-21,41.4,35.9,32.4,39.2,34.0,30.6,94,93,90,30.05,29.94,3,0,3,0.00
2014-1-22,51.8,43.4,36.5,47.0,40.5,34.7,95,90,82,30.06,29.95,2,0,2,0.00
2014-1-23,54.9,44.1,35.8,41.5,36.0,32.6,90,74,56,29.98,29.88,2,0,2,0.00
2014-1-24,55.1,43.1,32.6,39.4,33.3,27.3,83,69,49,30.02,29.91,3,0,3,0.00
2014-1-25,50.0,37.4,28.6,38.4,30.9,24.8,88,78,63,30.07,29.91,3,0,3,0.00
2014-1-26,50.4,37.0,28.1,40.7,32.1,25.0,92,82,67,29.91,29.73,3,0,3,0.00
2014-1-27,44.3,38.7,33.1,38.4,33.9,30.1,90,83,74,29.92,29.78,1,0,1,0.00
2014-1-28,44.3,42.1,40.1,42.4,39.2,36.8,93,89,86,29.92,29.65,2,0,2,0.00
2014-1-29,57.6,51.0,44.3,51.3,46.8,41.5,95,86,75,29.68,29.50,10,1,10,0.00
2014-1-30,52.7,46.9,41.4,46.0,41.3,38.6,92,81,65,29.70,29.63,5,0,5,0.00
2014-1-31,43.2,41.3,40.7,39.8,38.7,37.7,92,90,87,29.84,29.82,1,0,1,0.00
2014-2-1,52.4,44.2,40.1,44.4,39.9,35.8,93,85,69,29.86,29.67,3,0,3,0.00
2014-2-2,50.0,42.0,34.9,42.9,37.5,31.4,90,84,75,29.67,29.60,2,0,2,0.00
2014-2-3,51.8,40.8,33.3,42.3,35.9,31.0,93,83,58,29.81,29.67,4,0,4,0.00
2014-2-4,39.6,37.3,32.8,36.9,33.5,24.8,90,86,73,29.96,29.81,2,0,2,0.00
2014-2-5,37.1,30.6,24.8,25.0,18.8,11.4,74,62,49,30.01,29.82,2,0,2,0.00
2014-2-6,27.5,24.3,22.1,23.3,17.9,11.4,89,77,55,29.82,29.39,2,0,2,0.00
2014-2-7,33.3,25.9,22.3,31.0,23.2,19.0,92,89,87,29.58,29.29,0,0,0,0.00
2014-2-8,35.8,32.1,29.5,33.3,29.9,27.1,93,91,89,29.64,29.39,0,0,0,0.00
2014-2-9,40.0,36.3,33.8,38.1,34.3,31.7,94,93,90,29.77,29.64,0,0,0,0.00
2014-2-10,51.7,41.8,35.6,47.5,39.4,33.9,94,91,85,29.87,29.77,3,0,3,0.00
2014-2-11,49.5,45.4,41.2,46.9,43.5,39.6,96,93,90,29.86,29.47,5,0,5,0.00
2014-2-12,57.6,53.6,47.3,55.6,52.2,46.3,97,95,92,29.62,29.44,7,1,7,0.00
2014-2-13,57.6,51.5,45.0,52.9,47.8,42.6,95,87,73,29.84,29.46,5,0,5,0.00
2014-2-14,57.8,52.9,48.2,53.2,50.3,46.0,96,91,81,29.67,29.43,6,0,6,0.00
2014-2-15,56.3,49.0,44.1,54.6,46.7,41.0,95,92,83,29.60,29.09,8,0,8,0.00
2014-2-16,56.5,47.9,40.5,47.8,43.0,38.6,93,84,69,29.77,29.51,9,2,9,0.00
2014-2-17,55.4,49.1,45.4,49.5,44.3,42.2,92,84,70,29.72,29.49,12,2,12,0.00
2014-2-18,52.4,48.4,40.1,50.4,45.6,36.6,93,90,84,29.74,29.45,9,2,9,0.00
2014-2-19,50.8,44.1,38.0,45.9,41.2,35.6,94,90,81,29.94,29.73,4,0,4,0.00
2014-2-20,51.1,47.8,44.8,48.3,45.4,42.4,94,92,88,29.96,29.90,7,1,7,0.00
2014-2-21,56.5,48.0,41.0,47.8,43.5,37.0,96,85,67,29.98,29.88,3,0,3,0.00
2014-2-22,52.9,43.2,34.6,44.0,37.9,31.6,91,82,68,29.89,29.72,3,0,3,0.00
2014-2-23,50.9,42.6,32.0,47.6,39.4,29.3,94,89,82,29.73,29.62,5,0,5,0.00
2014-2-24,62.6,54.6,49.0,57.9,51.6,46.4,95,90,81,29.68,29.63,3,0,3,0.00
2014-2-25,52.6,46.7,42.3,46.4,40.7,35.4,91,80,66,29.68,29.59,2,0,2,0.00
2014-2-26,54.2,47.0,41.2,43.1,37.8,34.5,79,71,62,29.60,29.32,2,0,2,0.00
2014-2-27,53.3,47.0,43.7,49.1,42.7,35.8,93,85,72,29.42,29.29,2,0,2,0.00
2014-2-28,61.9,51.0,45.2,51.7,46.6,43.5,94,85,66,29.37,29.06,4,0,4,0.00
2014-3-1,57.8,49.5,45.5,54.4,46.3,42.8,94,89,80,29.42,29.16,3,0,3,0.00
2014-3-2,57.2,50.7,44.6,55.1,47.8,42.8,96,90,81,29.55,29.34,9,1,9,0.00
2014-3-3,61.7,54.3,46.6,58.0,50.9,44.0,95,88,76,29.66,29.45,7,1,7,0.00
2014-3-4,65.9,55.6,45.9,55.9,50.8,44.0,95,85,69,29.72,29.51,5,0,5,0.00
2014-3-5,62.6,57.8,54.4,60.0,55.3,50.2,95,91,84,29.51,29.19,8,1,8,0.00
2014-3-6,57.2,52.8,48.4,52.6,49.3,46.0,93,88,81,29.86,29.31,9,1,11,0.00
2014-3-7,63.0,54.0,45.5,52.6,48.2,42.2,93,82,61,29.96,29.77,4,0,4,0.00
2014-3-8,58.7,51.9,43.0,54.6,48.4,40.1,94,88,79,29.79,29.55,5,0,5,0.00
2014-3-9,65.0,57.8,52.2,58.7,54.9,49.6,95,90,79,29.72,29.59,3,0,3,0.00
2014-3-10,56.7,50.9,40.7,50.2,45.1,36.6,92,81,64,30.17,29.68,9,1,9,0.00
2014-3-11,58.1,46.2,35.3,46.4,40.3,32.9,95,81,62,30.22,30.02,3,0,3,0.00
2014-3-12,63.7,50.4,35.6,47.4,41.2,32.7,93,72,47,30.03,29.82,2,0,3,0.00
2014-3-13,63.5,50.1,36.4,49.4,43.1,33.4,92,78,59,29.83,29.73,3,0,3,0.00
2014-3-14,63.4,55.3,47.5,55.2,48.0,41.7,93,78,54,30.00,29.72,6,1,6,0.00
2014-3-15,67.5,53.0,40.7,55.4,46.7,37.4,92,80,64,30.01,29.93,5,0,5,0.00
2014-3-16,64.3,53.8,45.4,53.8,47.8,41.6,93,81,61,30.01,29.66,9,1,9,0.00
2014-3-17,54.2,46.6,39.2,42.8,38.4,33.6,92,74,49,30.07,29.80,6,0,6,0.00
2014-3-18,58.3,47.1,35.8,45.5,39.6,32.2,89,76,59,30.06,29.81,4,0,4,0.00
2014-3-19,59.9,47.9,37.1,49.1,41.8,33.9,92,80,62,29.95,29.79,6,1,6,0.00
2014-3-20,55.8,44.5,33.8,41.7,36.8,31.1,92,76,50,30.04,29.95,4,0,4,0.00
2014-3-21,56.7,46.1,35.3,40.6,36.3,31.1,87,70,49,29.98,29.85,4,0,4,0.00
2014-3-22,61.0,47.4,32.9,40.6,35.1,27.7,85,64,39,29.96,29.84,3,0,3,0.00
2014-3-23,63.2,48.3,34.4,45.6,37.8,29.7,87,68,45,29.97,29.84,3,0,3,0.00
2014-3-24,70.6,53.3,36.4,51.0,42.1,32.8,90,68,43,29.84,29.56,5,0,5,0.00
2014-3-25,58.9,52.4,48.1,51.3,45.8,38.7,87,79,58,29.57,29.36,8,1,8,0.00
2014-3-26,56.9,50.2,47.2,51.8,46.2,44.2,91,86,76,29.36,29.24,9,1,9,0.00
2014-3-27,59.8,51.5,45.9,51.1,47.0,43.5,92,85,69,29.60,29.29,8,1,8,0.00
2014-3-28,61.2,53.2,49.3,56.0,50.2,46.1,93,89,82,29.58,29.43,7,1,7,0.00
2014-3-29,58.5,51.4,47.0,52.7,47.2,42.9,92,86,70,29.62,29.47,6,1,8,0.00
2014-3-30,58.3,49.2,41.0,47.9,44.2,37.7,93,83,64,29.70,29.61,6,0,6,0.00
2014-3-31,53.6,45.6,37.6,47.6,42.1,35.5,94,88,78,29.61,29.33,5,0,5,0.00
2014-4-1,59.4,50.3,42.8,50.1,45.1,40.7,94,83,60,29.62,29.42,3,0,3,0.00
2014-4-2,63.9,52.6,45.0,49.9,45.6,42.3,93,78,54,29.73,29.62,5,0,5,0.00
2014-4-3,60.8,50.5,42.7,48.4,44.1,39.3,91,79,58,29.69,29.62,6,1,6,0.00
2014-4-4,62.3,53.2,47.2,50.0,45.5,42.4,92,77,53,29.68,29.62,6,1,6,0.00
2014-4-5,61.0,54.2,49.9,55.2,49.4,44.9,90,84,78,29.86,29.68,7,1,7,0.00
2014-4-6,68.8,58.2,51.5,57.4,52.2,47.3,91,81,61,29.98,29.85,7,1,7,0.00
2014-4-7,72.7,56.4,45.5,59.4,50.4,43.0,93,81,61,29.96,29.77,4,0,4,0.00
2014-4-8,72.7,57.0,44.3,60.2,50.0,41.4,93,79,53,29.87,29.73,5,0,5,0.00
2014-4-9,64.6,56.7,49.5,51.9,45.7,37.1,88,69,37,29.92,29.81,3,0,3,0.00
2014-4-10,66.6,54.6,43.6,45.2,41.4,32.5,85,64,34,29.90,29.74,4,0,4,0.00
2014-4-11,69.1,56.7,45.7,49.2,45.6,41.5,85,68,46,29.79,29.65,4,0,4,0.00
2014-4-12,65.3,54.4,44.5,47.2,44.3,40.5,87,70,48,29.78,29.68,3,0,3,0.00
2014-4-13,73.8,56.1,41.0,46.7,41.1,35.6,88,61,31,29.87,29.74,4,0,4,0.00
2014-4-14,72.0,57.5,43.2,48.2,40.3,31.8,75,54,36,29.89,29.74,4,0,4,0.00
2014-4-15,62.6,54.1,42.8,45.4,42.3,37.7,86,66,48,29.93,29.80,4,0,4,0.00
2014-4-16,66.4,57.1,50.0,50.2,47.1,42.0,84,70,55,29.84,29.67,5,0,5,0.00
2014-4-17,61.2,54.1,45.9,56.1,50.0,42.3,90,86,75,29.72,29.55,7,1,7,0.00
2014-4-18,64.1,50.9,38.7,48.4,42.0,35.8,93,74,44,29.81,29.54,3,0,3,0.00
2014-4-19,63.0,51.5,41.8,52.9,44.7,37.5,89,78,59,29.92,29.51,9,1,9,0.00
2014-4-20,68.8,54.3,40.0,51.9,45.4,37.0,92,73,52,29.96,29.79,5,0,5,0.00
2014-4-21,66.8,54.2,48.6,50.6,46.8,42.7,89,77,51,29.79,29.56,5,1,5,0.00
2014-4-22,62.6,51.9,45.2,49.9,45.2,41.9,90,79,57,29.66,29.58,11,2,11,0.00
2014-4-23,62.6,53.1,47.2,55.3,48.8,43.2,93,85,73,29.68,29.45,12,3,12,0.00
2014-4-24,61.2,54.7,48.8,54.7,49.2,44.0,94,82,57,29.61,29.40,10,2,10,0.00
2014-4-25,62.3,50.7,44.6,52.1,45.6,41.1,91,83,64,29.59,29.52,4,0,5,0.00
2014-4-26,62.5,49.8,38.9,51.2,43.7,36.5,94,80,57,29.58,29.42,8,1,8,0.00
2014-4-27,58.3,51.0,42.8,50.0,45.3,40.1,91,81,60,29.87,29.44,8,1,8,0.00
2014-4-28,67.0,53.2,39.8,50.2,44.4,37.3,94,74,46,30.00,29.86,4,0,4,0.00
2014-4-29,83.7,61.4,43.6,57.1,48.5,40.2,91,66,39,30.11,29.92,4,0,4,0.00
2014-4-30,87.8,71.0,56.9,53.0,46.6,39.4,54,43,28,29.96,29.68,4,0,4,0.00
2014-5-1,91.3,70.9,52.2,59.9,48.6,40.3,73,47,23,29.74,29.65,5,1,5,0.00
2014-5-2,74.5,61.9,50.4,58.1,50.2,40.8,82,66,40,29.77,29.65,7,1,7,0.00
2014-5-3,65.2,58.6,51.5,53.7,50.3,45.5,88,74,60,29.69,29.47,9,2,9,0.00
2014-5-4,64.4,56.8,52.2,54.7,50.4,46.9,90,80,65,29.63,29.50,9,2,12,0.00
2014-5-5,68.6,56.3,48.4,53.1,47.7,43.8,91,74,45,29.75,29.63,7,1,7,0.00
2014-5-6,74.3,56.7,45.4,52.7,45.6,37.2,88,68,37,29.76,29.67,7,1,7,0.00
2014-5-7,75.8,54.7,38.9,50.1,42.6,34.7,89,66,38,29.74,29.59,6,1,6,0.00
2014-5-8,64.1,56.1,50.8,59.3,51.2,43.8,90,84,71,29.61,29.39,6,1,6,0.00
2014-5-9,61.2,53.9,49.3,54.2,48.9,45.5,92,84,68,29.76,29.58,7,1,7,0.00
2014-5-10,66.2,54.8,47.3,53.1,47.8,42.3,91,78,57,29.96,29.76,8,1,8,0.00
2014-5-11,78.3,56.5,42.8,52.8,46.3,39.5,92,71,37,30.00,29.88,6,0,6,0.00
2014-5-12,82.3,63.1,45.0,53.7,46.0,40.7,90,59,27,29.95,29.85,4,0,4,0.00
2014-5-13,87.3,68.1,50.0,54.4,46.5,39.7,74,48,29,29.95,29.85,4,0,4,0.00
2014-5-14,93.4,75.4,54.4,61.8,54.4,45.7,76,49,34,29.88,29.69,4,0,4,0.00
2014-5-15,84.6,70.3,57.4,63.0,55.8,47.0,87,63,35,29.79,29.69,6,1,6,0.00
2014-5-16,78.5,61.9,49.3,58.4,50.6,44.3,86,68,46,29.83,29.74,6,1,6,0.00
2014-5-17,81.4,62.0,54.0,57.1,52.0,46.6,85,71,43,29.78,29.54,5,0,5,0.00
2014-5-18,67.0,58.6,54.7,58.6,53.6,50.4,91,84,67,29.62,29.53,5,1,6,0.00
2014-5-19,76.0,62.3,54.0,56.3,52.9,49.6,91,73,47,29.67,29.60,5,1,5,0.00
2014-5-20,86.2,66.7,50.0,61.1,53.8,45.9,89,65,39,29.81,29.66,5,0,5,0.00
2014-5-21,87.5,62.6,50.0,61.9,51.7,45.4,87,69,38,29.84,29.73,5,0,5,0.00
2014-5-22,86.4,68.5,53.6,64.1,57.0,49.0,86,68,45,29.77,29.62,4,0,4,0.00
2014-5-23,73.3,65.8,59.8,61.9,58.1,54.5,87,77,63,29.81,29.66,5,0,5,0.00
2014-5-24,81.7,64.7,57.2,57.4,53.7,50.0,86,69,43,29.87,29.76,5,0,5,0.00
2014-5-25,79.9,63.9,51.1,60.9,53.5,47.0,88,71,40,29.79,29.64,7,1,7,0.00
2014-5-26,75.1,63.9,54.4,56.5,50.7,44.3,83,64,40,29.84,29.74,6,1,6,0.00
2014-5-27,71.8,60.2,54.0,60.0,49.7,44.8,79,69,48,29.84,29.79,5,0,5,0.00
2014-5-28,71.5,58.9,51.3,53.3,47.8,44.6,86,68,41,29.92,29.81,8,1,8,0.00
2014-5-29,81.7,60.1,47.9,55.8,48.8,42.9,86,68,39,29.92,29.75,5,0,5,0.00
2014-5-30,85.9,63.1,48.2,56.4,50.3,42.7,84,65,35,29.76,29.57,5,0,5,0.00
2014-5-31,81.4,63.5,50.0,58.4,52.0,45.9,88,68,45,29.76,29.68,5,0,5,0.00
2014-6-1,86.8,62.4,51.8,61.6,51.9,46.7,85,70,37,29.78,29.61,3,0,5,0.00
2014-6-2,90.0,65.4,51.1,63.4,53.9,47.0,89,68,40,29.62,29.52,5,1,5,0.00
2014-6-3,83.0,63.1,53.5,59.4,51.5,47.2,80,67,40,29.76,29.61,5,0,5,0.00
2014-6-4,87.3,62.7,50.2,62.8,51.4,45.5,88,69,38,29.81,29.71,5,0,5,0.00
2014-6-5,85.1,63.6,50.0,54.9,48.0,41.6,80,59,33,29.81,29.67,5,0,5,0.00
2014-6-6,91.4,66.1,49.9,54.7,47.2,40.1,73,53,23,29.78,29.68,6,0,6,0.00
2014-6-7,92.0,68.0,54.5,62.9,53.3,44.2,78,61,35,29.85,29.75,5,0,5,0.00
2014-6-8,89.1,69.2,54.2,62.0,55.5,48.8,85,64,38,29.88,29.71,5,0,5,0.00
2014-6-9,90.2,67.2,56.5,60.0,53.4,46.9,83,63,34,29.81,29.70,6,0,6,0.00
2014-6-10,92.2,65.4,50.8,58.5,49.7,44.3,81,59,30,29.80,29.69,5,0,5,0.00
2014-6-11,90.0,71.0,56.5,57.1,52.8,49.2,79,55,31,29.72,29.49,5,0,5,0.00
2014-6-12,69.3,61.9,56.9,59.3,52.2,49.3,79,71,56,29.65,29.53,7,1,7,0.00
2014-6-13,68.4,60.5,52.9,57.3,51.9,46.3,89,74,55,29.86,29.64,6,2,6,0.00
2014-6-14,71.3,61.9,52.9,53.8,50.5,46.6,83,68,49,29.86,29.68,4,0,4,0.00
2014-6-15,68.8,60.2,53.3,57.8,50.2,45.4,84,70,52,29.68,29.57,11,1,11,0.00
2014-6-16,68.4,58.3,50.8,55.3,48.2,44.1,85,70,47,29.73,29.60,7,1,7,0.00
2014-6-17,67.9,59.7,52.0,55.8,51.3,44.7,88,75,60,29.84,29.73,3,0,3,0.00
2014-6-18,89.3,63.8,49.0,57.1,49.9,44.3,88,64,29,29.83,29.66,6,0,6,0.00
2014-6-19,83.5,67.3,49.7,58.1,53.2,44.6,86,63,39,29.76,29.64,8,1,8,0.00
2014-6-20,85.9,66.1,56.7,57.3,53.0,46.0,86,65,35,29.84,29.75,5,0,5,0.00
2014-6-21,88.2,64.8,52.4,53.2,48.6,43.5,79,59,26,29.78,29.65,5,0,5,0.00
2014-6-22,94.9,68.9,51.7,56.6,51.5,46.0,83,58,23,29.74,29.60,6,0,6,0.00
2014-6-23,83.3,67.7,55.8,60.8,53.1,43.5,81,62,32,29.77,29.64,8,1,8,0.00
2014-6-24,86.4,68.7,53.8,60.7,56.2,49.7,88,67,39,29.80,29.66,5,1,5,0.00
2014-6-25,77.2,67.8,59.6,64.6,60.5,55.0,87,78,64,29.67,29.49,4,0,4,0.00
2014-6-26,74.7,66.1,61.6,64.3,60.0,56.7,90,81,62,29.55,29.48,7,1,7,0.00
2014-6-27,78.3,66.5,61.0,64.6,59.0,55.3,92,78,54,29.65,29.45,8,2,8,0.00
2014-6-28,73.3,65.3,59.6,64.4,58.4,54.9,90,79,65,29.76,29.63,7,1,7,0.00
2014-6-29,83.2,67.7,59.8,59.4,55.8,53.4,85,68,41,29.86,29.76,6,0,6,0.00
2014-6-30,92.9,71.0,55.1,62.7,56.5,50.6,86,63,36,29.84,29.55,5,0,5,0.00
2014-7-1,111.4,78.9,58.9,62.6,56.8,51.8,79,50,18,29.55,29.38,4,0,4,0.00
2014-7-2,88.2,71.8,61.4,63.0,57.7,52.9,81,63,40,29.69,29.50,6,1,6,0.00
2014-7-3,90.2,68.7,58.9,60.5,55.1,51.7,80,64,34,29.78,29.68,4,0,4,0.00
2014-7-4,94.9,70.4,57.8,61.8,54.7,50.1,83,60,31,29.73,29.62,5,0,5,0.00
2014-7-5,97.9,72.9,55.8,61.3,53.9,44.6,82,56,22,29.77,29.69,5,0,5,0.00
2014-7-6,104.2,75.3,58.1,63.5,57.5,52.2,83,57,25,29.84,29.70,5,0,5,0.00
2014-7-7,104.8,78.6,65.3,68.5,63.5,59.2,84,62,30,29.75,29.58,5,0,5,0.00
2014-7-8,98.5,77.9,63.0,66.0,62.4,57.6,86,62,33,29.68,29.58,5,0,5,0.00
2014-7-9,98.8,79.3,66.4,61.9,57.6,54.4,67,49,29,29.67,29.54,6,0,6,0.00
2014-7-10,100.4,72.7,55.6,60.0,54.8,49.8,83,58,22,29.63,29.48,5,0,5,0.00
2014-7-11,87.7,73.9,58.7,64.4,59.7,53.5,85,63,41,29.66,29.53,5,0,5,0.00
2014-7-12,104.0,76.4,59.6,67.4,61.3,54.7,85,63,29,29.75,29.65,5,0,5,0.00
2014-7-13,80.1,67.6,59.9,66.4,59.8,54.6,86,76,60,29.81,29.72,5,0,5,0.00
2014-7-14,102.6,74.8,62.6,71.3,62.0,57.3,84,67,34,29.81,29.66,4,0,4,0.00
2014-7-15,108.0,78.9,62.6,70.6,61.8,54.5,77,59,29,29.73,29.54,4,0,4,0.00
2014-7-16,106.2,79.0,63.0,64.2,59.0,52.8,80,55,19,29.68,29.55,4,0,4,0.00
2014-7-17,100.1,72.3,56.9,59.3,54.0,49.1,83,57,25,29.74,29.62,4,0,4,0.00
2014-7-18,95.4,71.2,56.3,61.6,54.0,47.5,80,57,31,29.77,29.69,5,0,5,0.00
2014-7-19,97.2,76.4,62.5,67.3,61.2,56.2,82,62,34,29.77,29.60,6,0,6,0.00
2014-7-20,81.0,69.8,62.6,61.5,58.0,51.8,82,67,50,29.66,29.58,5,0,5,0.00
2014-7-21,86.8,69.5,59.2,60.3,55.3,51.1,77,62,39,29.69,29.61,4,0,4,0.00
2014-7-22,85.0,70.6,61.9,64.9,59.6,54.7,85,69,46,29.71,29.64,5,0,5,0.00
2014-7-23,72.4,63.9,58.9,61.3,55.7,51.8,88,75,59,29.85,29.68,6,1,6,0.00
2014-7-24,78.1,65.9,58.5,60.5,55.8,52.6,85,71,49,29.94,29.83,6,1,6,0.00
2014-7-25,93.6,68.4,55.6,63.1,55.6,51.5,86,66,35,29.83,29.68,5,0,5,0.00
2014-7-26,99.7,72.1,57.4,61.7,57.0,52.1,86,63,26,29.79,29.69,4,0,4,0.00
2014-7-27,99.2,74.2,60.8,64.7,59.6,54.9,83,63,31,29.78,29.65,4,0,4,0.00
2014-7-28,106.4,78.3,61.0,64.5,59.9,55.5,84,57,24,29.75,29.63,5,0,5,0.00
2014-7-29,101.5,76.9,61.0,64.3,58.9,53.6,80,56,29,29.77,29.65,5,0,5,0.00
2014-7-30,102.2,76.1,58.7,64.1,58.8,52.9,83,59,27,29.77,29.63,4,0,4,0.00
2014-7-31,100.4,78.5,61.2,64.7,58.9,53.6,77,53,31,29.71,29.58,5,0,5,0.00
2014-8-1,103.5,78.0,64.6,67.0,61.6,57.7,83,60,29,29.68,29.53,8,0,8,0.00
2014-8-2,99.0,74.8,60.1,65.5,59.8,55.0,84,62,32,29.67,29.58,4,0,4,0.00
2014-8-3,101.2,75.4,58.1,67.9,60.1,53.2,85,62,33,29.70,29.52,4,0,4,0.00
2014-8-4,94.0,75.7,62.1,67.6,60.9,55.1,83,62,39,29.66,29.53,6,0,6,0.00
2014-8-5,97.2,68.5,55.8,59.4,55.1,50.3,86,66,27,29.77,29.66,3,0,3,0.00
2014-8-6,95.2,72.4,57.8,66.2,59.3,53.7,88,66,37,29.82,29.67,5,0,5,0.00
2014-8-7,96.1,72.8,60.7,57.9,53.2,42.9,80,54,26,29.76,29.64,5,0,5,0.00
2014-8-8,92.5,69.9,56.7,57.2,52.8,48.6,77,57,30,29.79,29.67,4,0,4,0.00
2014-8-9,95.8,72.5,57.1,58.4,55.2,51.3,82,58,27,29.78,29.63,4,0,4,0.00
2014-8-10,101.0,77.5,61.4,64.0,58.3,52.8,75,54,29,29.70,29.52,4,0,4,0.00
2014-8-11,103.0,84.2,68.0,67.4,62.5,57.7,72,50,30,29.57,29.45,5,1,5,0.00
2014-8-12,80.3,71.6,65.3,65.3,60.1,56.5,78,67,56,29.61,29.50,6,1,6,0.00
2014-8-13,81.0,71.1,59.0,63.4,59.9,54.5,85,69,52,29.69,29.60,5,1,5,0.00
2014-8-14,83.9,72.1,63.4,64.7,61.3,59.1,89,70,46,29.69,29.60,7,1,7,0.00
2014-8-15,85.1,72.1,64.8,64.1,60.8,57.7,83,69,47,29.71,29.64,5,1,5,0.00
2014-8-16,94.3,73.8,60.8,65.8,61.5,55.7,85,68,38,29.76,29.64,4,0,4,0.00
2014-8-17,96.7,77.3,65.2,65.6,62.2,57.8,84,62,34,29.75,29.60,5,0,5,0.00
2014-8-18,95.2,75.8,60.8,67.6,61.0,54.1,81,62,39,29.65,29.42,4,0,4,0.00
2014-8-19,88.9,74.9,63.4,63.8,60.3,56.9,82,62,40,29.55,29.45,6,1,6,0.00
2014-8-20,87.5,70.5,61.0,59.2,55.9,50.0,81,62,34,29.67,29.55,4,0,4,0.00
2014-8-21,85.1,67.0,52.4,57.7,50.6,46.5,84,59,31,29.72,29.58,4,0,4,0.00
2014-8-22,85.5,68.6,55.3,60.6,53.9,47.8,81,61,37,29.71,29.63,5,0,5,0.00
2014-8-23,91.1,71.9,55.6,60.5,54.3,49.5,83,57,29,29.77,29.60,5,0,5,0.00
2014-8-24,87.5,72.0,57.2,59.0,52.5,45.9,76,53,26,29.63,29.49,4,0,4,0.00
2014-8-25,92.2,74.8,62.1,60.5,56.1,51.0,81,56,29,29.63,29.53,5,0,5,0.00
2014-8-26,93.6,77.5,61.4,61.1,56.7,53.1,77,51,29,29.68,29.57,4,0,4,0.00
2014-8-27,92.5,75.8,60.5,62.7,58.0,53.1,79,56,35,29.71,29.62,4,0,4,0.00
2014-8-28,69.1,65.8,62.6,57.3,55.9,53.8,74,70,66,29.72,29.69,1,0,1,0.00
2014-8-31,78.1,70.4,60.5,58.4,55.0,51.4,73,59,49,29.73,29.68,4,0,4,0.00
2014-9-1,82.1,67.2,53.1,60.0,55.3,49.0,88,68,45,29.75,29.60,5,0,5,0.00
2014-9-2,80.8,68.3,58.1,59.5,56.3,50.9,89,67,43,29.68,29.56,7,1,7,0.00
2014-9-3,74.0,62.5,50.0,55.5,50.2,45.9,89,66,44,29.78,29.67,5,0,5,0.00
2014-9-4,85.0,68.6,54.2,56.1,51.8,49.0,85,59,32,29.69,29.55,3,0,6,0.00
2014-9-5,92.9,76.3,62.8,54.4,47.8,40.3,58,40,21,29.66,29.52,5,0,5,0.00
2014-9-6,94.1,77.4,62.3,51.7,44.8,39.3,60,34,16,29.58,29.45,4,0,4,0.00
2014-9-7,84.4,66.1,50.9,57.2,51.5,45.0,82,62,34,29.57,29.45,3,0,3,0.00
2014-9-8,80.3,65.8,50.9,58.2,53.5,46.3,87,67,44,29.65,29.52,4,0,4,0.00
2014-9-9,75.8,66.9,59.9,56.0,52.4,49.2,77,61,41,29.80,29.65,4,0,4,0.00
2014-9-10,79.2,65.2,53.1,58.1,52.5,48.1,88,66,38,29.82,29.68,5,0,5,0.00
2014-9-11,81.9,71.0,58.7,52.7,40.3,33.1,66,36,22,29.76,29.60,5,1,5,0.00
2014-9-12,84.6,69.0,56.9,45.1,38.6,33.0,52,34,21,29.61,29.49,4,0,4,0.00
2014-9-13,86.6,66.9,48.8,49.1,43.7,39.2,75,47,22,29.54,29.43,5,0,5,0.00
2014-9-14,87.5,66.5,48.8,50.4,46.7,42.3,81,54,24,29.53,29.44,4,0,4,0.00
2014-9-15,87.8,67.4,51.1,55.1,50.4,45.2,82,58,31,29.53,29.42,3,0,3,0.00
2014-9-16,80.3,66.0,53.6,58.2,54.1,48.2,84,67,46,29.60,29.47,4,1,4,0.00
2014-9-17,74.5,67.6,61.4,61.7,57.9,54.2,80,71,60,29.48,29.36,4,0,4,0.00
2014-9-18,77.8,67.6,59.9,61.8,58.5,55.3,87,74,55,29.65,29.38,5,0,5,0.00
2014-9-19,82.1,68.6,56.2,62.3,56.7,52.3,90,68,37,29.75,29.64,4,0,5,0.00
2014-9-20,89.6,72.2,59.8,63.9,59.9,55.3,88,67,40,29.67,29.43,4,0,4,0.00
2014-9-21,85.0,69.2,58.0,62.2,57.3,53.3,86,68,36,29.64,29.49,7,1,7,0.00
2014-9-22,72.7,65.8,60.5,60.2,57.4,54.0,87,75,63,29.68,29.56,5,0,5,0.00
2014-9-23,68.6,63.5,58.9,63.5,60.0,55.4,92,88,83,29.58,29.37,4,0,4,0.00
2014-9-24,68.9,64.1,60.3,64.0,61.2,57.9,93,90,82,29.54,29.43,5,1,5,0.00
2014-9-25,72.4,61.9,56.5,62.4,58.0,54.3,94,87,63,29.60,29.49,8,1,8,0.00
2014-9-26,73.8,62.5,54.9,60.7,56.3,52.6,94,81,57,29.72,29.59,7,1,7,0.00
2014-9-27,72.0,62.8,56.0,60.8,56.8,52.7,91,81,65,29.75,29.65,5,0,5,0.00
2014-9-28,77.6,63.2,52.6,60.4,55.2,49.4,91,77,49,29.66,29.54,4,0,4,0.00
2014-9-29,69.1,60.0,50.8,61.7,55.4,47.9,92,85,71,29.73,29.58,7,1,7,0.00
2014-9-30,69.1,60.2,52.2,59.9,54.3,48.1,92,82,57,29.85,29.72,4,0,4,0.00
2014-10-1,68.9,57.0,47.5,56.1,49.4,45.1,92,77,52,29.90,29.80,4,0,4,0.00
2014-10-2,71.8,58.5,45.7,54.0,48.5,42.8,91,71,47,29.91,29.84,4,0,4,0.00
2014-10-3,78.1,61.4,47.5,56.3,50.5,43.0,89,69,44,29.86,29.76,4,0,4,0.00
2014-10-4,81.7,62.7,47.9,59.2,52.5,44.6,91,72,41,29.83,29.70,4,0,4,0.00
2014-10-5,84.1,67.4,51.5,63.2,56.4,48.0,89,70,46,29.74,29.61,3,0,3,0.00
2014-10-6,84.4,70.0,56.5,63.5,59.0,52.0,88,69,48,29.65,29.50,3,0,3,0.00
2014-10-7,82.4,67.5,54.7,65.4,59.2,51.5,92,76,55,29.57,29.40,3,0,3,0.00
2014-10-11,72.9,67.6,57.6,56.9,54.3,51.5,81,63,53,29.91,29.81,9,2,9,0.00
2014-10-13,75.1,62.7,46.6,57.3,51.6,43.3,92,70,44,29.58,29.41,8,1,8,0.00
2014-10-14,62.3,58.3,55.4,59.0,55.0,53.1,92,89,81,29.53,29.22,4,0,4,0.00
2014-10-15,64.8,57.5,53.3,58.9,53.5,50.1,93,87,79,29.68,29.20,11,2,11,0.00
2014-10-16,69.3,59.6,51.5,55.7,52.0,49.1,93,77,53,29.68,29.44,4,0,4,0.00
2014-10-17,63.7,59.1,55.1,60.1,56.2,52.4,93,90,84,29.56,29.41,3,0,3,0.00
2014-10-18,74.0,64.5,58.1,64.4,60.2,55.4,94,86,67,29.63,29.45,4,0,4,0.00
2014-10-19,74.5,63.6,55.4,64.0,58.7,53.1,95,85,66,29.47,29.36,6,1,6,0.00
2014-10-20,64.3,60.1,54.4,60.2,56.9,51.8,93,89,83,29.55,29.39,5,1,5,0.00
2014-10-21,64.1,58.6,54.5,55.4,52.9,51.0,91,82,71,29.68,29.51,8,2,8,0.00
2014-10-22,61.6,58.5,56.5,58.7,55.6,52.4,93,90,84,29.51,29.36,9,1,9,0.00
2014-10-23,63.7,58.4,52.7,59.9,55.3,50.4,94,89,79,29.67,29.42,5,1,5,0.00
2014-10-24,55.4,53.3,51.1,53.3,51.4,49.1,95,93,92,29.68,29.32,2,0,2,0.00
2014-10-25,65.0,56.4,52.2,57.9,53.2,49.7,95,89,74,29.63,29.03,14,2,14,0.00
2014-10-26,60.7,53.1,47.0,54.2,49.7,44.6,94,89,79,29.85,29.62,5,1,5,0.00
2014-10-27,62.3,53.4,47.0,53.1,49.0,44.6,94,85,68,29.85,29.65,5,0,5,0.00
2014-10-28,63.4,58.1,50.8,56.5,52.4,47.3,92,82,68,29.72,29.58,10,2,10,0.00
2014-10-29,66.6,60.2,56.7,59.6,56.4,54.0,92,87,76,29.81,29.65,4,0,4,0.00
2014-10-30,63.4,59.4,57.2,61.4,57.6,55.4,95,93,92,29.65,29.41,3,0,3,0.00
2014-10-31,61.6,56.3,50.8,57.5,52.9,47.6,94,89,75,29.51,29.34,5,0,5,0.00
2014-11-1,56.5,50.0,45.2,51.3,47.2,43.0,94,90,81,29.77,29.47,4,0,4,0.00
2014-11-2,60.1,52.7,45.7,55.1,49.6,43.8,94,89,83,29.88,29.77,8,1,8,0.00
2014-11-3,62.3,55.8,53.3,58.1,53.1,51.0,93,91,83,29.89,29.79,7,1,7,0.00
2014-11-4,62.1,58.6,55.8,59.4,56.3,54.1,95,92,87,29.96,29.75,7,1,7,0.00
2014-11-5,67.3,59.5,54.4,61.7,56.8,52.4,96,91,80,29.94,29.65,3,0,3,0.00
2014-11-6,63.2,56.7,47.3,60.1,54.4,45.7,95,92,83,30.00,29.59,8,1,8,0.00
2014-11-7,57.2,49.4,43.9,52.4,46.9,41.1,96,91,77,30.10,29.97,3,0,3,0.00
2014-11-8,51.3,46.1,40.7,48.4,44.1,38.8,95,93,88,29.97,29.76,4,0,4,0.00
2014-11-9,61.2,50.2,42.8,57.4,47.8,40.8,95,92,80,29.78,29.64,6,1,6,0.00
2014-11-10,55.8,47.4,41.0,51.7,43.5,36.8,96,87,72,29.79,29.64,4,0,4,0.00
2014-11-11,57.2,45.7,36.5,39.1,31.9,20.4,74,59,46,29.76,29.61,3,0,3,0.00
2014-11-12,47.7,39.9,33.8,27.4,21.8,17.7,53,48,39,29.79,29.59,4,0,4,0.00
2014-11-13,38.5,35.4,33.8,36.1,31.8,22.6,93,87,53,29.63,29.48,1,0,4,0.00
2014-11-14,43.2,36.3,30.4,37.7,33.1,28.2,92,88,80,29.86,29.63,2,0,2,0.00
2014-11-15,46.8,36.2,28.1,32.3,26.8,20.9,85,69,55,30.07,29.86,3,0,3,0.00
2014-11-16,45.7,34.3,25.0,28.3,23.1,17.4,78,64,48,30.08,29.96,3,0,3,0.00
2014-11-17,45.4,32.6,23.8,32.0,25.4,19.6,87,75,56,30.04,29.81,2,0,2,0.00
2014-11-18,43.7,34.2,25.7,33.8,28.3,22.0,89,79,66,29.84,29.73,2,0,2,0.00
2014-11-19,50.2,41.9,33.5,40.6,35.5,29.1,89,79,62,29.73,29.51,2,0,3,0.00
2014-11-20,52.6,47.7,43.7,50.0,45.4,40.4,94,92,88,29.67,29.60,2,0,2,0.00
2014-11-21,58.0,52.5,48.6,56.5,50.5,47.0,95,93,87,29.63,29.17,13,2,13,0.00
2014-11-22,54.9,50.3,44.8,51.0,47.5,42.4,94,90,83,29.95,29.35,5,0,5,0.00
2014-11-23,57.6,50.3,44.3,51.1,46.9,42.1,94,88,78,30.02,29.93,9,1,9,0.00
2014-11-24,59.4,51.3,42.1,50.8,46.8,40.2,94,85,70,30.04,29.94,6,1,6,0.00
2014-11-25,62.3,58.4,54.7,58.3,55.4,50.6,93,90,85,30.04,29.96,5,1,5,0.00
2014-11-26,61.2,54.8,48.2,55.4,51.8,46.6,95,90,81,29.96,29.66,5,0,5,0.00
2014-11-27,56.9,54.8,53.8,53.9,52.2,51.1,94,91,88,29.68,29.49,8,1,8,0.00
2014-11-28,57.6,54.0,47.7,55.1,51.6,44.8,95,92,88,29.50,29.19,10,2,10,0.00
2014-11-29,47.5,43.0,33.8,44.8,39.3,30.6,92,87,77,29.73,29.32,6,1,6,0.00
2014-11-30,41.8,35.6,31.3,31.7,28.0,23.2,90,74,60,29.75,29.62,3,0,3,0.00
2014-12-1,43.0,37.3,33.8,39.1,32.7,24.1,91,84,67,29.82,29.73,2,0,2,0.00
2014-12-2,43.9,39.8,36.9,37.5,35.1,31.4,93,83,74,29.79,29.45,2,0,2,0.00
2014-12-3,52.4,43.5,38.0,42.2,35.9,32.7,83,75,64,29.47,29.36,3,0,3,0.00
2014-12-4,49.7,44.4,40.7,46.5,41.5,37.1,93,89,81,29.60,29.45,1,0,1,0.00
2014-12-5,52.0,47.9,45.7,49.9,46.1,43.8,95,93,91,29.62,29.42,4,0,4,0.00
2014-12-6,58.5,51.8,43.7,53.4,48.7,41.6,95,89,81,29.87,29.53,8,1,8,0.00
2014-12-7,52.0,45.8,41.0,49.2,43.7,39.2,95,92,87,29.85,29.66,4,0,4,0.00
2014-12-8,52.9,47.9,42.8,50.8,45.9,41.2,95,93,91,29.73,29.58,3,0,3,0.00
2014-12-9,62.3,57.6,52.9,58.6,54.8,50.9,95,91,78,29.61,29.42,7,1,7,0.00
2014-12-10,59.0,55.7,46.6,55.9,52.8,45.0,94,90,84,29.42,29.01,9,1,9,0.00
2014-12-11,48.6,46.7,45.5,47.1,45.1,43.7,95,94,93,29.20,28.98,1,0,1,0.00